Time;durP1;ratioP1;P1;durP2;ratioP2;P2;SDS_P1;SDS_P2;PMS_P1;PMS_P2;Temp;Humidity;BMP_temperature;BMP_pressure;BME280_temperature;BME280_humidity;BME280_pressure;Samples;Min_cycle;Max_cycle;Signal;HPM_P1;HPM_P2
2022/02/12 00:00:24;;;;;;;93.63;44.60;;;;;;;;;;4325881;33;20298;-54
2022/02/12 00:02:53;;;;;;;90.70;43.57;;;;;;;;;;4324757;33;20230;-53
2022/02/12 00:05:19;;;;;;;85.43;43.50;;;;;;;;;;4340507;33;20249;-54
2022/02/12 00:07:45;;;;;;;78.60;41.87;;;;;;;;;;4390845;32;20238;-54
2022/02/12 00:10:11;;;;;;;86.63;41.80;;;;;;;;;;4340495;33;20362;-55
2022/02/12 00:12:36;;;;;;;74.27;39.73;;;;;;;;;;4340098;32;20270;-54
2022/02/12 00:15:02;;;;;;;93.03;41.50;;;;;;;;;;4340500;33;20305;-54
2022/02/12 00:17:28;;;;;;;89.90;42.70;;;;;;;;;;4340022;33;20218;-54
2022/02/12 00:19:54;;;;;;;83.10;42.83;;;;;;;;;;4340611;33;20290;-54
2022/02/12 00:22:19;;;;;;;96.07;45.73;;;;;;;;;;4340185;33;20230;-54
2022/02/12 00:24:45;;;;;;;108.07;52.37;;;;;;;;;;4340372;33;20344;-55
2022/02/12 00:27:10;;;;;;;150.23;70.03;;;;;;;;;;4340456;33;20783;-53
2022/02/12 00:29:36;;;;;;;107.90;55.83;;;;;;;;;;4339995;32;20297;-54
2022/02/12 00:32:03;;;;;;;144.63;72.27;;;;;;;;;;4340296;33;20284;-54
2022/02/12 00:34:28;;;;;;;149.10;72.13;;;;;;;;;;4340143;33;20286;-53
2022/02/12 00:36:54;;;;;;;137.73;69.97;;;;;;;;;;4340198;33;20318;-54
2022/02/12 00:39:19;;;;;;;128.73;62.57;;;;;;;;;;4340420;33;20296;-53
2022/02/12 00:41:44;;;;;;;121.53;63.23;;;;;;;;;;4340056;33;20302;-54
2022/02/12 00:44:10;;;;;;;118.10;62.07;;;;;;;;;;4339692;33;20718;-55
2022/02/12 00:46:36;;;;;;;123.77;54.70;;;;;;;;;;4389928;32;20292;-54
2022/02/12 00:49:03;;;;;;;103.53;50.80;;;;;;;;;;4340466;33;20320;-55
2022/02/12 00:51:33;;;;;;;108.87;54.73;;;;;;;;;;4339799;33;20287;-55
2022/02/12 00:53:58;;;;;;;137.63;58.47;;;;;;;;;;4390388;32;20675;-54
2022/02/12 00:56:24;;;;;;;145.63;63.27;;;;;;;;;;4339750;33;20341;-54
2022/02/12 00:58:50;;;;;;;130.63;62.13;;;;;;;;;;4390223;32;20742;-53
2022/02/12 01:01:15;;;;;;;142.23;61.70;;;;;;;;;;4339915;33;20428;-54
2022/02/12 01:03:41;;;;;;;142.27;64.10;;;;;;;;;;4390265;32;20313;-54
2022/02/12 01:06:06;;;;;;;131.57;59.77;;;;;;;;;;4339696;32;20420;-54
2022/02/12 01:08:32;;;;;;;116.80;54.57;;;;;;;;;;4339876;33;20347;-55
2022/02/12 01:10:57;;;;;;;106.67;50.07;;;;;;;;;;4340042;33;20309;-54
2022/02/12 01:13:23;;;;;;;96.57;47.90;;;;;;;;;;4339746;32;20353;-54
2022/02/12 01:15:48;;;;;;;81.73;38.90;;;;;;;;;;4339986;33;20370;-54
2022/02/12 01:18:14;;;;;;;79.80;36.63;;;;;;;;;;4339685;33;20709;-53
2022/02/12 01:20:40;;;;;;;68.77;33.57;;;;;;;;;;4339904;33;20294;-54
2022/02/12 01:23:06;;;;;;;81.43;35.13;;;;;;;;;;4339598;33;20230;-54
2022/02/12 01:25:32;;;;;;;77.23;34.23;;;;;;;;;;4339728;33;20268;-54
2022/02/12 01:27:58;;;;;;;83.30;37.77;;;;;;;;;;4339787;33;20627;-54
2022/02/12 01:30:24;;;;;;;79.33;35.73;;;;;;;;;;4339451;33;20297;-55
2022/02/12 01:32:50;;;;;;;79.40;37.83;;;;;;;;;;4390213;32;20239;-53
2022/02/12 01:35:15;;;;;;;81.10;37.97;;;;;;;;;;4390113;32;20681;-55
2022/02/12 01:37:41;;;;;;;99.80;45.20;;;;;;;;;;4339816;33;20679;-54
2022/02/12 01:40:08;;;;;;;112.33;56.80;;;;;;;;;;4339664;33;20294;-55
2022/02/12 01:42:34;;;;;;;186.77;80.60;;;;;;;;;;4389574;32;20255;-54
2022/02/12 01:45:01;;;;;;;179.70;79.03;;;;;;;;;;4339623;32;20286;-54
2022/02/12 01:47:27;;;;;;;184.30;83.70;;;;;;;;;;4339295;33;20227;-55
2022/02/12 01:49:53;;;;;;;209.87;94.53;;;;;;;;;;4339820;33;20198;-53
2022/02/12 01:52:20;;;;;;;228.20;108.67;;;;;;;;;;4339623;32;20317;-54
2022/02/12 01:54:47;;;;;;;260.07;120.50;;;;;;;;;;4389884;32;20404;-54
2022/02/12 01:57:12;;;;;;;272.20;123.80;;;;;;;;;;4340770;33;20374;-55
2022/02/12 01:59:40;;;;;;;254.80;116.80;;;;;;;;;;4342220;33;20285;-55
2022/02/12 02:02:07;;;;;;;261.97;117.37;;;;;;;;;;4405710;32;20255;-53
2022/02/12 02:04:33;;;;;;;191.83;93.40;;;;;;;;;;4367344;32;20348;-54
2022/02/12 02:06:59;;;;;;;207.40;102.60;;;;;;;;;;4342214;32;20231;-53
2022/02/12 02:09:28;;;;;;;212.37;104.77;;;;;;;;;;4330625;32;20361;-54
2022/02/12 02:11:54;;;;;;;232.63;107.27;;;;;;;;;;4327156;32;20630;-54
2022/02/12 02:14:19;;;;;;;234.13;107.07;;;;;;;;;;4327463;33;20219;-54
2022/02/12 02:16:45;;;;;;;230.83;103.47;;;;;;;;;;4382318;32;20381;-54
2022/02/12 02:19:13;;;;;;;237.00;103.33;;;;;;;;;;4341857;33;20638;-55
2022/02/12 02:21:39;;;;;;;217.67;101.33;;;;;;;;;;4341618;33;20242;-54
2022/02/12 02:24:06;;;;;;;214.53;99.70;;;;;;;;;;4342116;33;20350;-55
2022/02/12 02:26:33;;;;;;;214.70;100.80;;;;;;;;;;4341596;33;22547;-53
2022/02/12 02:28:58;;;;;;;211.27;101.07;;;;;;;;;;4341786;33;20228;-55
2022/02/12 02:31:24;;;;;;;218.30;99.40;;;;;;;;;;4341717;33;20227;-55
2022/02/12 02:33:50;;;;;;;201.87;95.93;;;;;;;;;;4392587;32;20261;-54
2022/02/12 02:36:16;;;;;;;219.73;106.50;;;;;;;;;;4341706;33;20326;-54
2022/02/12 02:38:42;;;;;;;226.03;102.27;;;;;;;;;;4341701;33;20664;-56
2022/02/12 02:41:08;;;;;;;196.83;96.83;;;;;;;;;;4341921;33;20524;-54
2022/02/12 02:43:34;;;;;;;208.97;100.30;;;;;;;;;;4392430;32;20301;-56
2022/02/12 02:45:59;;;;;;;207.70;100.47;;;;;;;;;;4341832;33;20316;-54
2022/02/12 02:48:25;;;;;;;209.00;98.00;;;;;;;;;;4392259;32;20639;-55
2022/02/12 02:56:19;;;;;;;205.20;96.73;;;;;;;;;;4341299;33;20241;-55
2022/02/12 02:58:50;;;;;;;221.63;98.43;;;;;;;;;;4391912;32;20301;-55
2022/02/12 03:01:18;;;;;;;248.23;109.53;;;;;;;;;;4391722;32;20294;-54
2022/02/12 03:03:47;;;;;;;253.97;111.23;;;;;;;;;;4341481;33;20289;-54
2022/02/12 03:06:14;;;;;;;247.13;110.27;;;;;;;;;;4341362;32;20223;-54
2022/02/12 03:08:40;;;;;;;211.20;102.87;;;;;;;;;;4340125;33;20813;-54
2022/02/12 03:11:07;;;;;;;200.90;95.03;;;;;;;;;;4341376;32;20282;-53
2022/02/12 03:13:33;;;;;;;207.20;93.33;;;;;;;;;;4340791;32;20569;-54
2022/02/12 03:15:59;;;;;;;195.67;94.63;;;;;;;;;;4391646;32;20299;-53
2022/02/12 03:18:25;;;;;;;216.90;100.93;;;;;;;;;;4340918;33;20236;-54
2022/02/12 03:20:52;;;;;;;237.83;102.40;;;;;;;;;;4341319;33;20395;-54
2022/02/12 03:23:17;;;;;;;233.37;107.80;;;;;;;;;;4340870;33;20344;-54
2022/02/12 03:25:43;;;;;;;233.47;102.00;;;;;;;;;;4391687;32;20321;-56
2022/02/12 03:28:10;;;;;;;196.93;96.87;;;;;;;;;;4340893;32;20222;-54
2022/02/12 03:30:38;;;;;;;191.47;92.87;;;;;;;;;;4336117;32;20246;-54
2022/02/12 03:33:04;;;;;;;193.23;94.83;;;;;;;;;;4332243;33;20231;-54
2022/02/12 03:35:30;;;;;;;201.07;92.50;;;;;;;;;;4326053;33;20234;-55
2022/02/12 03:38:16;;;;;;;168.37;86.43;;;;;;;;;;4326154;33;20296;-54
2022/02/12 03:40:47;;;;;;;187.07;85.70;;;;;;;;;;4326230;33;20237;-54
2022/02/12 03:43:13;;;;;;;189.03;90.50;;;;;;;;;;4325805;33;20770;-55
2022/02/12 03:45:40;;;;;;;187.97;89.23;;;;;;;;;;4325939;33;20306;-54
2022/02/12 03:48:06;;;;;;;182.87;87.47;;;;;;;;;;4325991;33;20227;-54
2022/02/12 03:50:32;;;;;;;180.63;87.50;;;;;;;;;;4326430;33;20263;-55
2022/02/12 03:53:00;;;;;;;174.93;86.37;;;;;;;;;;4340625;32;20271;-54
2022/02/12 03:55:25;;;;;;;157.97;74.83;;;;;;;;;;4404414;32;20703;-54
2022/02/12 03:57:51;;;;;;;157.83;75.10;;;;;;;;;;4417868;32;20378;-54
2022/02/12 04:00:17;;;;;;;169.53;70.57;;;;;;;;;;4418058;32;20422;-54
2022/02/12 04:02:44;;;;;;;144.00;62.97;;;;;;;;;;4376137;32;20222;-54
2022/02/12 04:05:11;;;;;;;137.27;64.93;;;;;;;;;;4340603;33;20222;-56
2022/02/12 04:07:38;;;;;;;139.80;65.67;;;;;;;;;;4339672;33;20276;-54
2022/02/12 04:10:08;;;;;;;134.07;66.43;;;;;;;;;;4325729;33;20591;-55
2022/02/12 04:12:34;;;;;;;137.13;64.10;;;;;;;;;;4325230;33;20328;-54
2022/02/12 04:14:59;;;;;;;122.37;57.33;;;;;;;;;;4325956;33;20290;-54
2022/02/12 04:17:25;;;;;;;116.10;56.77;;;;;;;;;;4334320;33;20253;-55
2022/02/12 04:19:51;;;;;;;111.20;48.80;;;;;;;;;;4390844;32;20404;-55
2022/02/12 04:22:17;;;;;;;93.10;43.67;;;;;;;;;;4340402;32;20548;-54
2022/02/12 04:24:42;;;;;;;88.20;42.10;;;;;;;;;;4340529;33;20282;-56
2022/02/12 04:27:07;;;;;;;95.47;43.63;;;;;;;;;;4339849;33;20249;-55
2022/02/12 04:29:33;;;;;;;107.30;47.60;;;;;;;;;;4377564;32;20266;-53
2022/02/12 04:31:58;;;;;;;99.10;49.73;;;;;;;;;;4339596;33;20284;-54
2022/02/12 04:34:24;;;;;;;95.17;47.10;;;;;;;;;;4390339;32;20337;-54
2022/02/12 04:36:50;;;;;;;111.97;53.97;;;;;;;;;;4389888;32;20298;-55
2022/02/12 04:39:16;;;;;;;126.93;62.30;;;;;;;;;;4340317;33;20342;-52
2022/02/12 04:41:42;;;;;;;140.13;66.40;;;;;;;;;;4339666;33;20265;-54
2022/02/12 04:44:08;;;;;;;150.43;67.23;;;;;;;;;;4339284;33;20916;-53
2022/02/12 04:46:33;;;;;;;172.23;80.40;;;;;;;;;;4339785;33;20249;-53
2022/02/12 04:48:59;;;;;;;162.87;80.93;;;;;;;;;;4344711;32;20274;-56
2022/02/12 04:51:25;;;;;;;152.33;77.37;;;;;;;;;;4415563;32;20268;-54
2022/02/12 04:53:51;;;;;;;157.27;80.07;;;;;;;;;;4415244;32;20296;-53
2022/02/12 04:56:17;;;;;;;154.03;77.73;;;;;;;;;;4414899;32;20546;-53
2022/02/12 04:58:43;;;;;;;165.37;79.13;;;;;;;;;;4415078;32;20309;-55
2022/02/12 05:01:19;;;;;;;158.57;72.33;;;;;;;;;;4415262;32;20612;-54
2022/02/12 05:03:49;;;;;;;146.23;73.33;;;;;;;;;;4388308;32;20464;-54
2022/02/12 05:06:19;;;;;;;142.00;70.47;;;;;;;;;;4339229;33;20245;-53
2022/02/12 05:08:46;;;;;;;145.17;68.37;;;;;;;;;;4340000;33;20783;-54
2022/02/12 05:11:12;;;;;;;141.13;71.83;;;;;;;;;;4339566;33;20466;-55
2022/02/12 05:13:37;;;;;;;143.83;71.77;;;;;;;;;;4339400;33;20711;-55
2022/02/12 05:16:04;;;;;;;148.63;75.27;;;;;;;;;;4339612;33;20732;-53
2022/02/12 05:18:29;;;;;;;163.97;78.97;;;;;;;;;;4339765;33;20337;-55
2022/02/12 05:20:56;;;;;;;146.47;73.43;;;;;;;;;;4339836;33;20278;-54
2022/02/12 05:23:21;;;;;;;120.07;63.33;;;;;;;;;;4339612;32;20329;-54
2022/02/12 05:25:47;;;;;;;143.77;67.37;;;;;;;;;;4389906;32;20290;-53
2022/02/12 05:28:13;;;;;;;134.33;64.93;;;;;;;;;;4339760;33;20292;-54
2022/02/12 05:30:40;;;;;;;132.03;66.83;;;;;;;;;;4339306;33;20331;-52
2022/02/12 05:33:06;;;;;;;131.83;66.63;;;;;;;;;;4339504;33;20620;-53
2022/02/12 05:35:32;;;;;;;131.50;64.33;;;;;;;;;;4389583;32;20359;-55
2022/02/12 05:37:57;;;;;;;134.90;67.53;;;;;;;;;;4339787;33;20250;-53
2022/02/12 05:40:23;;;;;;;141.13;72.37;;;;;;;;;;4339678;33;20373;-54
2022/02/12 05:42:48;;;;;;;152.90;77.20;;;;;;;;;;4339223;33;20348;-54
2022/02/12 05:45:14;;;;;;;142.67;76.23;;;;;;;;;;4339411;32;20289;-53
2022/02/12 05:47:41;;;;;;;151.73;75.70;;;;;;;;;;4338978;33;20227;-53
2022/02/12 05:50:08;;;;;;;136.93;69.80;;;;;;;;;;4339201;33;20234;-53
2022/02/12 05:52:34;;;;;;;134.53;67.37;;;;;;;;;;4389472;32;20227;-53
2022/02/12 05:55:00;;;;;;;126.33;65.07;;;;;;;;;;4339310;32;20285;-54
2022/02/12 05:57:26;;;;;;;132.50;67.03;;;;;;;;;;4338947;33;20639;-52
2022/02/12 05:59:51;;;;;;;149.40;67.73;;;;;;;;;;4339775;33;20686;-53
2022/02/12 06:02:17;;;;;;;145.07;71.27;;;;;;;;;;4339251;33;20329;-54
2022/02/12 06:04:42;;;;;;;135.50;73.73;;;;;;;;;;4339163;33;20634;-54
2022/02/12 06:07:08;;;;;;;129.77;72.47;;;;;;;;;;4339206;33;20377;-53
2022/02/12 06:09:33;;;;;;;113.70;64.73;;;;;;;;;;4326894;33;20734;-55
2022/02/12 06:11:59;;;;;;;100.53;57.03;;;;;;;;;;4324426;32;20749;-53
2022/02/12 06:14:24;;;;;;;96.50;52.10;;;;;;;;;;4324745;33;20282;-53
2022/02/12 06:16:54;;;;;;;101.93;52.63;;;;;;;;;;4329842;33;20323;-53
2022/02/12 06:19:19;;;;;;;92.63;51.33;;;;;;;;;;4339287;33;20289;-54
2022/02/12 06:21:45;;;;;;;108.63;54.87;;;;;;;;;;4389161;32;20250;-54
2022/02/12 06:24:11;;;;;;;99.23;52.33;;;;;;;;;;4339141;33;20315;-54
2022/02/12 06:26:40;;;;;;;94.33;50.03;;;;;;;;;;4337741;32;20282;-53
2022/02/12 06:29:05;;;;;;;78.30;43.53;;;;;;;;;;4339194;33;20203;-54
2022/02/12 06:31:31;;;;;;;83.73;44.73;;;;;;;;;;4338899;33;20420;-53
2022/02/12 06:33:56;;;;;;;82.13;43.77;;;;;;;;;;4339294;33;20269;-53
2022/02/12 06:36:21;;;;;;;79.13;38.53;;;;;;;;;;4338981;33;20286;-54
2022/02/12 06:38:47;;;;;;;68.13;37.33;;;;;;;;;;4338909;33;20290;-53
2022/02/12 06:41:12;;;;;;;73.33;35.63;;;;;;;;;;4338860;33;20292;-54
2022/02/12 06:43:38;;;;;;;66.33;35.40;;;;;;;;;;4326408;33;20316;-54
2022/02/12 06:46:03;;;;;;;69.23;33.00;;;;;;;;;;4327017;33;20290;-54
2022/02/12 06:48:29;;;;;;;69.17;35.13;;;;;;;;;;4326706;33;20629;-53
2022/02/12 06:50:55;;;;;;;69.90;35.23;;;;;;;;;;4326679;33;20341;-53
2022/02/12 06:53:21;;;;;;;70.30;37.77;;;;;;;;;;4377105;32;20441;-53
2022/02/12 06:55:46;;;;;;;72.40;42.20;;;;;;;;;;4326466;33;20320;-54
2022/02/12 06:58:12;;;;;;;97.73;49.80;;;;;;;;;;4326778;33;20291;-55
2022/02/12 07:00:37;;;;;;;81.37;48.13;;;;;;;;;;4326575;33;20697;-53
2022/02/12 07:03:03;;;;;;;85.40;43.40;;;;;;;;;;4327493;33;20381;-54
2022/02/12 07:05:28;;;;;;;84.17;48.27;;;;;;;;;;4341513;32;20372;-53
2022/02/12 07:07:54;;;;;;;90.97;50.30;;;;;;;;;;4392074;32;20392;-53
2022/02/12 07:10:21;;;;;;;100.07;53.73;;;;;;;;;;4341422;33;20274;-52
2022/02/12 07:12:46;;;;;;;92.20;50.47;;;;;;;;;;4341304;32;20730;-54
2022/02/12 07:15:12;;;;;;;81.97;50.70;;;;;;;;;;4391964;32;20313;-53
2022/02/12 07:17:41;;;;;;;105.37;54.27;;;;;;;;;;4340846;33;20239;-54
2022/02/12 07:20:08;;;;;;;90.53;48.30;;;;;;;;;;4341248;33;20642;-53
2022/02/12 07:22:33;;;;;;;102.17;54.67;;;;;;;;;;4340915;33;20266;-54
2022/02/12 07:24:59;;;;;;;88.67;45.17;;;;;;;;;;4341033;33;20312;-53
2022/02/12 07:27:25;;;;;;;87.37;49.70;;;;;;;;;;4340960;33;20593;-53
2022/02/12 07:29:50;;;;;;;80.73;46.30;;;;;;;;;;4341037;33;20699;-54
2022/02/12 07:32:15;;;;;;;81.43;45.17;;;;;;;;;;4341037;33;20692;-53
2022/02/12 07:34:41;;;;;;;71.77;40.33;;;;;;;;;;4341191;33;20346;-52
2022/02/12 07:37:06;;;;;;;79.33;42.67;;;;;;;;;;4341182;33;20246;-53
2022/02/12 07:39:32;;;;;;;87.70;45.67;;;;;;;;;;4340447;32;20344;-53
2022/02/12 07:41:58;;;;;;;76.93;40.10;;;;;;;;;;4340476;33;20242;-54
2022/02/12 07:44:24;;;;;;;67.90;39.63;;;;;;;;;;4391359;32;20717;-53
2022/02/12 07:46:49;;;;;;;38.77;27.33;;;;;;;;;;4340957;33;20719;-54
2022/02/12 07:49:15;;;;;;;28.73;18.27;;;;;;;;;;4340848;33;20320;-53
2022/02/12 07:51:40;;;;;;;33.60;21.47;;;;;;;;;;4340897;32;20262;-54
2022/02/12 07:54:06;;;;;;;29.43;19.77;;;;;;;;;;4340564;33;20278;-54
2022/02/12 07:56:32;;;;;;;42.10;26.40;;;;;;;;;;4340275;33;20322;-54
2022/02/12 07:58:57;;;;;;;29.67;19.33;;;;;;;;;;4340871;33;20292;-54
2022/02/12 08:01:23;;;;;;;27.83;18.90;;;;;;;;;;4340714;33;20256;-54
2022/02/12 08:03:48;;;;;;;27.37;16.53;;;;;;;;;;4340871;33;20306;-54
2022/02/12 08:08:58;;;;;;;23.80;14.93;;;;;;;;;;4331994;33;20230;-53
2022/02/12 08:11:25;;;;;;;20.83;14.13;;;;;;;;;;4325446;33;20227;-52
2022/02/12 08:13:51;;;;;;;21.97;15.07;;;;;;;;;;4326151;33;20324;-54
2022/02/12 08:16:17;;;;;;;21.17;14.17;;;;;;;;;;4377878;32;20632;-53
2022/02/12 08:18:43;;;;;;;42.07;20.40;;;;;;;;;;4390943;32;20365;-54
2022/02/12 08:21:08;;;;;;;34.90;19.33;;;;;;;;;;4340377;33;20389;-53
2022/02/12 08:23:34;;;;;;;34.80;20.20;;;;;;;;;;4340048;33;20286;-56
2022/02/12 08:25:59;;;;;;;29.33;18.47;;;;;;;;;;4339989;33;20285;-55
2022/02/12 08:28:24;;;;;;;27.90;16.60;;;;;;;;;;4340333;33;20508;-53
2022/02/12 08:30:50;;;;;;;22.00;15.23;;;;;;;;;;4340284;33;20369;-52
2022/02/12 08:33:16;;;;;;;39.43;20.13;;;;;;;;;;4340342;33;20247;-54
2022/02/12 08:35:41;;;;;;;43.73;24.67;;;;;;;;;;4328393;33;20278;-55
2022/02/12 08:38:07;;;;;;;66.27;32.77;;;;;;;;;;4325290;33;20280;-54
2022/02/12 08:40:33;;;;;;;35.10;19.97;;;;;;;;;;4325223;33;20332;-54
2022/02/12 08:42:58;;;;;;;15.40;10.70;;;;;;;;;;4325389;33;20687;-54
2022/02/12 08:45:24;;;;;;;20.27;10.13;;;;;;;;;;4325769;33;20290;-54
2022/02/12 08:47:50;;;;;;;48.83;23.93;;;;;;;;;;4325160;33;20280;-54
2022/02/12 08:50:16;;;;;;;56.70;25.80;;;;;;;;;;4325496;33;20282;-56
2022/02/12 08:52:43;;;;;;;48.03;24.03;;;;;;;;;;4325098;33;20600;-54
2022/02/12 08:55:10;;;;;;;36.80;17.63;;;;;;;;;;4324793;33;20306;-55
2022/02/12 08:57:36;;;;;;;20.10;11.23;;;;;;;;;;4325381;33;20736;-54
2022/02/12 09:00:04;;;;;;;14.20;9.70;;;;;;;;;;4325449;33;20278;-54
2022/02/12 09:02:29;;;;;;;11.57;8.50;;;;;;;;;;4324752;33;20247;-55
2022/02/12 09:04:55;;;;;;;12.50;8.63;;;;;;;;;;4337400;33;20807;-53
2022/02/12 09:07:21;;;;;;;21.13;9.80;;;;;;;;;;4339134;32;20420;-54
2022/02/12 09:09:46;;;;;;;22.37;14.57;;;;;;;;;;4389667;32;20332;-54
2022/02/12 09:12:12;;;;;;;15.50;8.00;;;;;;;;;;4339639;33;20686;-54
2022/02/12 09:14:38;;;;;;;10.70;8.37;;;;;;;;;;4339500;32;20286;-55
2022/02/12 09:17:05;;;;;;;13.77;8.80;;;;;;;;;;4339535;32;20364;-54
2022/02/12 09:19:31;;;;;;;12.43;9.13;;;;;;;;;;4339673;32;20484;-54
2022/02/12 09:21:57;;;;;;;31.63;16.87;;;;;;;;;;4339587;32;20227;-54
2022/02/12 09:24:22;;;;;;;62.50;28.90;;;;;;;;;;4339835;33;20695;-56
2022/02/12 09:26:48;;;;;;;29.73;17.73;;;;;;;;;;4339532;33;20263;-54
2022/02/12 09:29:13;;;;;;;26.73;15.33;;;;;;;;;;4339744;33;20281;-53
2022/02/12 09:31:39;;;;;;;59.43;30.33;;;;;;;;;;4329505;33;20261;-53
2022/02/12 09:34:08;;;;;;;14.40;9.53;;;;;;;;;;4325329;33;20361;-55
2022/02/12 09:36:34;;;;;;;21.33;10.43;;;;;;;;;;4324783;32;20301;-54
2022/02/12 09:39:00;;;;;;;15.60;10.10;;;;;;;;;;4324701;33;20606;-55
2022/02/12 09:41:27;;;;;;;12.97;8.83;;;;;;;;;;4324424;33;20254;-54
2022/02/12 09:43:54;;;;;;;20.80;11.40;;;;;;;;;;4325002;33;20620;-54
2022/02/12 09:46:31;;;;;;;11.07;8.00;;;;;;;;;;4324909;33;20683;-54
2022/02/12 09:48:58;;;;;;;19.37;12.53;;;;;;;;;;4324973;33;20211;-54
2022/02/12 09:51:26;;;;;;;13.50;9.87;;;;;;;;;;4324755;33;20296;-54
2022/02/12 09:53:51;;;;;;;24.63;8.17;;;;;;;;;;4324825;32;20285;-55
2022/02/12 09:56:17;;;;;;;12.17;7.87;;;;;;;;;;4324483;33;20746;-55
2022/02/12 09:58:42;;;;;;;13.37;7.03;;;;;;;;;;4324604;33;20357;-54
2022/02/12 10:01:08;;;;;;;16.37;8.13;;;;;;;;;;4324557;32;20340;-55
2022/02/12 10:03:34;;;;;;;21.27;13.83;;;;;;;;;;4328314;32;20737;-54
2022/02/12 10:06:00;;;;;;;15.43;9.03;;;;;;;;;;4339460;33;20321;-55
2022/02/12 10:08:26;;;;;;;11.30;6.97;;;;;;;;;;4333783;33;20279;-54
2022/02/12 10:10:52;;;;;;;9.77;7.13;;;;;;;;;;4324422;33;20286;-55
2022/02/12 10:13:30;;;;;;;18.80;11.73;;;;;;;;;;4324480;32;20224;-56
2022/02/12 10:16:03;;;;;;;23.03;14.67;;;;;;;;;;4324329;33;20652;-55
2022/02/12 10:18:35;;;;;;;9.07;7.00;;;;;;;;;;4340788;32;20210;-54
2022/02/12 10:21:01;;;;;;;13.83;9.47;;;;;;;;;;4342040;32;20465;-54
2022/02/12 10:23:29;;;;;;;32.60;20.00;;;;;;;;;;4341502;33;20279;-53
2022/02/12 10:26:03;;;;;;;19.50;12.77;;;;;;;;;;4341654;33;20601;-54
2022/02/12 10:28:32;;;;;;;12.67;9.43;;;;;;;;;;4341191;32;20267;-53
2022/02/12 10:30:58;;;;;;;10.50;6.30;;;;;;;;;;4341911;32;20642;-54
2022/02/12 10:33:26;;;;;;;10.57;7.83;;;;;;;;;;4341455;32;20200;-54
2022/02/12 10:35:55;;;;;;;10.03;6.97;;;;;;;;;;4341339;32;20285;-53
2022/02/12 10:38:21;;;;;;;7.93;5.83;;;;;;;;;;4341537;33;20368;-54
2022/02/12 10:41:07;;;;;;;15.43;6.43;;;;;;;;;;4341353;33;20306;-55
2022/02/12 10:43:32;;;;;;;12.00;7.53;;;;;;;;;;4341582;32;20282;-55
2022/02/12 10:45:59;;;;;;;13.17;8.73;;;;;;;;;;4341281;32;20308;-55
2022/02/12 10:48:25;;;;;;;10.60;5.70;;;;;;;;;;4341214;32;20339;-54
2022/02/12 10:50:59;;;;;;;7.57;4.80;;;;;;;;;;4341783;32;20613;-56
2022/02/12 10:53:25;;;;;;;7.57;5.13;;;;;;;;;;4341153;33;20214;-56
2022/02/12 10:55:57;;;;;;;5.50;3.70;;;;;;;;;;4341174;33;20595;-56
2022/02/12 10:58:24;;;;;;;7.43;5.20;;;;;;;;;;4341669;32;20267;-55
2022/02/12 11:00:50;;;;;;;10.37;5.67;;;;;;;;;;4341101;32;20345;-55
2022/02/12 11:03:18;;;;;;;8.27;4.53;;;;;;;;;;4391899;32;20658;-57
2022/02/12 11:05:51;;;;;;;13.57;7.60;;;;;;;;;;4341214;32;20304;-54
2022/02/12 11:08:20;;;;;;;15.07;7.50;;;;;;;;;;4341062;32;20631;-54
2022/02/12 11:10:45;;;;;;;30.67;15.67;;;;;;;;;;4341379;32;20211;-55
2022/02/12 11:13:12;;;;;;;12.70;8.33;;;;;;;;;;4341326;32;20333;-54
2022/02/12 11:15:37;;;;;;;15.13;8.17;;;;;;;;;;4391659;32;20541;-56
2022/02/12 11:18:11;;;;;;;6.50;3.87;;;;;;;;;;4340970;32;20249;-53
2022/02/12 11:20:39;;;;;;;3.40;3.03;;;;;;;;;;4391834;32;20261;-54
2022/02/12 11:23:24;;;;;;;8.70;3.87;;;;;;;;;;4337548;32;20220;-54
2022/02/12 11:25:52;;;;;;;5.93;3.47;;;;;;;;;;4326400;32;20218;-55
2022/02/12 11:28:25;;;;;;;5.70;3.80;;;;;;;;;;4326086;33;20237;-55
2022/02/12 11:31:15;;;;;;;6.77;5.27;;;;;;;;;;4325964;32;20297;-54
2022/02/12 11:34:03;;;;;;;6.47;3.80;;;;;;;;;;4326263;33;20219;-54
2022/02/12 11:36:30;;;;;;;11.27;6.13;;;;;;;;;;4326053;32;20520;-54
2022/02/12 11:39:15;;;;;;;13.90;5.07;;;;;;;;;;4325983;32;20207;-55
2022/02/12 11:41:49;;;;;;;12.17;5.77;;;;;;;;;;4325777;32;20259;-55
2022/02/12 11:44:44;;;;;;;18.43;9.60;;;;;;;;;;4326229;32;20208;-56
2022/02/12 11:47:12;;;;;;;8.27;4.77;;;;;;;;;;4325545;32;20270;-55
2022/02/12 11:49:40;;;;;;;6.47;3.87;;;;;;;;;;4326003;32;20262;-54
2022/02/12 11:52:07;;;;;;;7.90;3.60;;;;;;;;;;4326181;33;20252;-54
2022/02/12 11:54:45;;;;;;;6.57;4.03;;;;;;;;;;4326108;32;20223;-55
2022/02/12 11:57:14;;;;;;;9.23;4.23;;;;;;;;;;4325800;33;20235;-56
2022/02/12 11:59:40;;;;;;;33.97;16.33;;;;;;;;;;4326274;32;20223;-54
2022/02/12 12:02:06;;;;;;;14.97;9.10;;;;;;;;;;4326043;33;20253;-55
2022/02/12 12:04:33;;;;;;;20.40;8.80;;;;;;;;;;4335668;32;20261;-55
2022/02/12 12:07:10;;;;;;;10.73;6.67;;;;;;;;;;4340364;32;20250;-54
2022/02/12 12:09:37;;;;;;;15.80;8.67;;;;;;;;;;4327571;33;20241;-55
2022/02/12 12:12:19;;;;;;;14.07;6.67;;;;;;;;;;4325595;32;20817;-55
2022/02/12 12:14:46;;;;;;;13.90;7.03;;;;;;;;;;4325663;32;20222;-55
2022/02/12 12:17:13;;;;;;;16.67;6.83;;;;;;;;;;4332898;32;20726;-55
2022/02/12 12:19:50;;;;;;;9.23;6.17;;;;;;;;;;4365542;32;20248;-55
2022/02/12 12:22:15;;;;;;;10.33;6.50;;;;;;;;;;4395256;32;20260;-55
2022/02/12 12:24:41;;;;;;;13.27;7.63;;;;;;;;;;4339530;32;20626;-54
2022/02/12 12:27:10;;;;;;;14.13;7.13;;;;;;;;;;4390725;32;20234;-54
2022/02/12 12:32:22;;;;;;;10.33;5.10;;;;;;;;;;4340187;33;20719;-54
2022/02/12 12:34:55;;;;;;;10.60;6.33;;;;;;;;;;4340239;33;20572;-54
2022/02/12 12:37:24;;;;;;;12.67;5.87;;;;;;;;;;4339717;32;20258;-54
2022/02/12 12:39:50;;;;;;;14.00;6.60;;;;;;;;;;4339871;32;20280;-54
2022/02/12 12:42:15;;;;;;;14.07;7.23;;;;;;;;;;4340140;32;20295;-54
2022/02/12 12:44:42;;;;;;;8.07;5.40;;;;;;;;;;4339898;33;20710;-54
2022/02/12 12:47:08;;;;;;;7.77;5.57;;;;;;;;;;4340271;32;20779;-54
2022/02/12 12:49:41;;;;;;;10.37;5.17;;;;;;;;;;4340128;33;20654;-54
2022/02/12 12:52:09;;;;;;;20.93;9.97;;;;;;;;;;4339975;32;20284;-53
2022/02/12 12:54:38;;;;;;;4.33;3.70;;;;;;;;;;4339981;32;20258;-54
2022/02/12 12:57:04;;;;;;;6.73;4.67;;;;;;;;;;4339989;32;20257;-53
2022/02/12 12:59:30;;;;;;;8.47;4.47;;;;;;;;;;4339597;33;20290;-54
2022/02/12 13:02:04;;;;;;;8.03;5.30;;;;;;;;;;4339701;33;20255;-54
2022/02/12 13:04:37;;;;;;;9.20;4.00;;;;;;;;;;4339699;32;20660;-54
2022/02/12 13:07:03;;;;;;;15.90;7.30;;;;;;;;;;4339799;32;20253;-54
2022/02/12 13:09:30;;;;;;;39.93;13.83;;;;;;;;;;4339483;33;20242;-55
2022/02/12 13:11:56;;;;;;;13.40;7.97;;;;;;;;;;4339846;32;20247;-54
2022/02/12 13:14:21;;;;;;;12.00;6.37;;;;;;;;;;4339632;32;20314;-53
2022/02/12 13:16:48;;;;;;;14.37;7.03;;;;;;;;;;4365881;32;20254;-55
2022/02/12 13:19:19;;;;;;;11.23;5.17;;;;;;;;;;4390103;32;20302;-55
2022/02/12 13:21:49;;;;;;;6.23;4.57;;;;;;;;;;4339255;33;20258;-54
2022/02/12 13:24:15;;;;;;;8.23;4.43;;;;;;;;;;4339759;32;20345;-53
2022/02/12 13:26:45;;;;;;;16.80;4.60;;;;;;;;;;4339400;32;20255;-54
2022/02/12 13:29:22;;;;;;;16.67;5.60;;;;;;;;;;4339381;32;20226;-54
2022/02/12 13:31:56;;;;;;;6.17;4.37;;;;;;;;;;4339365;32;20291;-54
2022/02/12 13:34:26;;;;;;;12.53;4.80;;;;;;;;;;4339153;32;20673;-53
2022/02/12 13:36:52;;;;;;;9.37;4.40;;;;;;;;;;4389093;32;20331;-55
2022/02/12 13:39:18;;;;;;;11.23;6.90;;;;;;;;;;4389530;32;20444;-55
2022/02/12 13:41:45;;;;;;;8.27;5.00;;;;;;;;;;4339044;33;20285;-54
2022/02/12 13:44:11;;;;;;;13.43;7.73;;;;;;;;;;4339212;32;20254;-52
2022/02/12 13:46:42;;;;;;;12.53;7.93;;;;;;;;;;4339114;32;20293;-54
2022/02/12 13:49:17;;;;;;;14.40;6.53;;;;;;;;;;4339105;33;20719;-55
2022/02/12 13:51:57;;;;;;;17.03;9.07;;;;;;;;;;4338510;33;20328;-54
2022/02/12 13:54:25;;;;;;;16.33;7.27;;;;;;;;;;4338828;33;20512;-53
2022/02/12 13:56:52;;;;;;;15.23;6.80;;;;;;;;;;4338881;33;20451;-53
2022/02/12 13:59:21;;;;;;;10.67;7.00;;;;;;;;;;4339079;33;20553;-54
2022/02/12 14:01:49;;;;;;;12.37;6.50;;;;;;;;;;4339029;32;20252;-53
2022/02/12 14:04:14;;;;;;;14.07;7.90;;;;;;;;;;4358048;32;20251;-55
2022/02/12 14:06:41;;;;;;;11.77;5.97;;;;;;;;;;4323976;33;20514;-53
2022/02/12 14:09:07;;;;;;;25.70;14.40;;;;;;;;;;4324129;33;20266;-54
2022/02/12 14:11:35;;;;;;;12.70;8.00;;;;;;;;;;4331974;32;20239;-53
2022/02/12 14:14:04;;;;;;;10.77;7.97;;;;;;;;;;4416557;32;20632;-54
2022/02/12 14:16:29;;;;;;;17.17;8.40;;;;;;;;;;4389217;32;20257;-54
2022/02/12 14:18:55;;;;;;;16.63;8.57;;;;;;;;;;4339236;32;20599;-55
2022/02/12 14:21:21;;;;;;;14.10;7.50;;;;;;;;;;4389535;32;20874;-53
2022/02/12 14:23:47;;;;;;;37.27;15.30;;;;;;;;;;4338705;32;20242;-54
2022/02/12 14:26:13;;;;;;;23.97;12.87;;;;;;;;;;4338981;33;20618;-54